< Cyclone 197417 1974 Season Cyclone 197419 >
Cyclone 197418 (JENNY)
General InformationTrack Information on Google MapsDetailed Wind Information || ResourceGoogle EarthGE AnimationAtom FeedGeoJSON
Detalied Best Track (Time Zone = UTC)
Year Month Day Hour Lat. Long. Pressure (hPa) Wind (kt) Class Image Chart
1974 3 17 00 -12.9 137.9 995 30 2 -- --
1974 3 17 03 -12.8 137.6 995 30 2 -- --
1974 3 17 06 -12.7 137.2 995 30 2 -- --
1974 3 17 08 -12.6 137.0 995 35 3 -- --
1974 3 17 09 -12.6 136.9 995 35 3 -- --
1974 3 17 10 -12.6 136.8 995 35 3 -- --
1974 3 17 12 -12.6 136.6 995 35 3 -- --
1974 3 19 00 -12.8 132.0 995 15 2 -- --
1974 3 19 21 -13.4 129.4 995 35 3 -- --
1974 3 20 00 -13.2 129.0 995 40 3 -- --
1974 3 20 03 -13.2 128.9 995 40 3 -- --
1974 3 20 06 -13.1 128.8 995 40 3 -- --
1974 3 20 09 -13.1 128.7 995 40 3 -- --
1974 3 20 12 -13.0 128.5 995 40 3 -- --
1974 3 20 15 -13.0 128.7 995 40 3 -- --
1974 3 20 18 -13.0 128.3 995 40 3 -- --
1974 3 20 21 -12.9 128.2 995 40 3 -- --
1974 3 21 00 -12.9 128.0 995 40 3 -- --
1974 3 21 03 -12.9 127.9 995 40 3 -- --
1974 3 21 06 -12.8 127.8 995 40 3 -- --
1974 3 21 09 -12.8 127.7 995 40 3 -- --
1974 3 21 12 -12.8 127.6 995 40 3 -- --
1974 3 21 15 -12.8 127.4 995 35 3 -- --
1974 3 21 18 -12.7 127.3 995 35 3 -- --
1974 3 21 21 -12.7 127.2 995 30 2 -- --
1974 3 22 00 -12.7 127.0 995.9 25 2 -- --
1974 3 22 03 -12.7 126.9 996.8 25 2 -- --
1974 3 22 06 -12.7 126.8 997.7 25 2 -- --
1974 3 22 09 -12.6 126.7 998.6 25 2 -- --
1974 3 22 12 -12.6 126.6 999.5 25 2 -- --
1974 3 22 15 -12.6 126.4 1000.4 25 2 -- --
1974 3 22 18 -12.6 126.3 1001.3 25 2 -- --
1974 3 22 21 -12.5 126.2 1002.2 25 2 -- --
1974 3 23 00 -12.5 126.0 1003.1 25 2 -- --
1974 3 23 13 -12.5 124.8 1004 25 2 -- --
1974 3 24 01 -12.5 123.7 1007 25 2 -- --
1974 3 24 04 -12.9 123.0 1007 25 2 -- --
1974 3 24 07 -12.5 122.1 1006 25 2 -- --
1974 3 24 10 -13.8 121.2 1005 25 2 -- --
1974 3 24 13 -13.7 120.3 1005 25 2 -- --
1974 3 24 16 -13.6 119.4 1005 25 2 -- --
1974 3 24 19 -13.4 118.4 1004 25 2 -- --
1974 3 24 22 -13.3 117.4 1004 25 2 -- --
1974 3 25 01 -13.2 116.6 1003 25 2 -- --
1974 3 25 04 -13.2 115.7 1003 25 2 -- --
1974 3 25 07 -13.3 114.9 1002 25 2 -- --
1974 3 25 10 -13.5 114.3 1002 25 2 -- --
1974 3 25 13 -13.8 113.6 1002 25 2 -- --
1974 3 25 16 -14.3 112.9 1001 25 2 -- --
1974 3 25 19 -14.6 112.2 1000 25 2 -- --
1974 3 25 22 -14.9 111.5 1000 25 2 -- --
1974 3 26 01 -15.4 110.5 999 30 2 -- --
1974 3 26 04 -15.5 110.1 999 30 2 -- --
1974 3 26 07 -15.8 109.6 999 30 2 -- --
1974 3 26 10 -16.0 109.1 999 30 2 -- --
1974 3 26 13 -16.2 108.5 999 30 2 -- --
1974 3 26 16 -16.3 108.1 999 30 2 -- --
1974 3 26 19 -16.5 107.5 999 30 2 -- --
1974 3 26 22 -16.5 106.9 999 30 2 -- --
1974 3 27 01 -16.9 106.4 999 30 2 -- --
1974 3 27 04 -17.0 106.3 999 30 2 -- --
1974 3 27 07 -17.3 106.1 997 30 2 -- --
1974 3 27 10 -17.5 106.0 996 30 2 -- --
1974 3 27 13 -17.7 106.0 995 35 3 -- --
1974 3 27 16 -18.0 106.0 992 40 3 -- --
1974 3 27 19 -18.3 106.0 990 45 3 -- --
1974 3 27 22 -18.5 106.1 989 50 4 -- --
1974 3 28 01 -18.6 106.2 988 50 4 -- --
1974 3 28 04 -18.9 106.3 991 50 4 -- --
1974 3 28 07 -19.2 106.4 991 50 4 -- --
1974 3 28 10 -19.4 106.5 994 40 3 -- --
1974 3 28 13 -19.5 106.6 999 30 2 -- --
1974 3 28 16 -19.8 106.7 1002 25 2 -- --
1974 3 28 19 -20.0 106.9 1001 25 2 -- --
1974 3 28 20 -20.2 107.0 1002 25 2 -- --
1974 3 29 01 -20.4 107.3 1003 25 2 -- --
1974 3 29 04 -20.5 107.4 1004 25 2 -- --
1974 3 29 07 -20.6 107.5 1002 25 2 -- --
1974 3 29 10 -20.7 107.6 1003 25 2 -- --
1974 3 29 13 -20.8 107.6 1005 25 2 -- --
1974 3 29 16 -20.9 107.8 1006 25 2 -- --
1974 3 29 19 -21.0 107.9 1005 25 2 -- --
1974 3 29 22 -21.2 108.0 1005 25 2 -- --
1974 3 30 01 -21.3 108.1 1006 25 2 -- --
1974 3 30 04 -21.5 108.2 1006 25 2 -- --
1974 3 30 07 -21.6 108.3 1005 25 2 -- --
1974 3 30 10 -21.7 108.4 1006 25 2 -- --
1974 3 30 13 -21.9 108.5 1005 25 2 -- --
1974 3 30 16 -22.0 108.6 1009 20 2 -- --
1974 3 30 19 -22.2 108.8 1009 20 2 -- --
1974 3 30 22 -22.4 109.0 1010 20 2 -- --
1974 3 31 01 -22.5 109.1 1010 20 2 -- --
< Cyclone 197417 1974 Season Cyclone 197419 >

Help